sensor_id;sensor_type;location;lat;lon;timestamp;P1;durP1;ratioP1;P2;durP2;ratioP2
35110;SDS011;21290;50.158;8.658;2024-03-06T00:01:57;17.02;;;11.77;;
35110;SDS011;21290;50.158;8.658;2024-03-06T00:04:25;17.23;;;11.63;;
35110;SDS011;21290;50.158;8.658;2024-03-06T00:06:52;14.23;;;11.00;;
35110;SDS011;21290;50.158;8.658;2024-03-06T00:09:20;15.73;;;11.82;;
35110;SDS011;21290;50.158;8.658;2024-03-06T00:11:46;16.02;;;12.70;;
35110;SDS011;21290;50.158;8.658;2024-03-06T00:14:14;16.95;;;12.27;;
35110;SDS011;21290;50.158;8.658;2024-03-06T00:16:42;25.67;;;17.17;;
35110;SDS011;21290;50.158;8.658;2024-03-06T00:19:09;18.10;;;13.60;;
35110;SDS011;21290;50.158;8.658;2024-03-06T00:21:35;17.73;;;13.00;;
35110;SDS011;21290;50.158;8.658;2024-03-06T00:24:03;15.57;;;11.82;;
35110;SDS011;21290;50.158;8.658;2024-03-06T00:26:30;18.38;;;12.68;;
35110;SDS011;21290;50.158;8.658;2024-03-06T00:28:57;19.25;;;12.25;;
35110;SDS011;21290;50.158;8.658;2024-03-06T00:31:23;19.85;;;13.02;;
35110;SDS011;21290;50.158;8.658;2024-03-06T00:33:50;18.00;;;13.18;;
35110;SDS011;21290;50.158;8.658;2024-03-06T00:36:17;20.83;;;13.80;;
35110;SDS011;21290;50.158;8.658;2024-03-06T00:38:44;18.77;;;13.55;;
35110;SDS011;21290;50.158;8.658;2024-03-06T00:41:11;19.25;;;13.73;;
35110;SDS011;21290;50.158;8.658;2024-03-06T00:43:38;19.92;;;14.20;;
35110;SDS011;21290;50.158;8.658;2024-03-06T00:46:05;21.58;;;14.05;;
35110;SDS011;21290;50.158;8.658;2024-03-06T00:48:32;19.45;;;13.85;;
35110;SDS011;21290;50.158;8.658;2024-03-06T00:50:59;18.77;;;13.85;;
35110;SDS011;21290;50.158;8.658;2024-03-06T00:53:25;22.95;;;15.07;;
35110;SDS011;21290;50.158;8.658;2024-03-06T00:55:52;22.35;;;15.27;;
35110;SDS011;21290;50.158;8.658;2024-03-06T00:58:20;22.92;;;14.50;;
35110;SDS011;21290;50.158;8.658;2024-03-06T01:00:48;22.65;;;14.63;;
35110;SDS011;21290;50.158;8.658;2024-03-06T01:03:15;21.63;;;14.03;;
35110;SDS011;21290;50.158;8.658;2024-03-06T01:05:42;20.90;;;14.25;;
35110;SDS011;21290;50.158;8.658;2024-03-06T01:08:09;20.92;;;14.68;;
35110;SDS011;21290;50.158;8.658;2024-03-06T01:10:36;24.63;;;15.05;;
35110;SDS011;21290;50.158;8.658;2024-03-06T01:13:02;22.35;;;14.45;;
35110;SDS011;21290;50.158;8.658;2024-03-06T01:15:30;22.00;;;16.00;;
35110;SDS011;21290;50.158;8.658;2024-03-06T01:17:57;22.95;;;15.18;;
35110;SDS011;21290;50.158;8.658;2024-03-06T01:20:24;19.58;;;15.15;;
35110;SDS011;21290;50.158;8.658;2024-03-06T01:22:51;20.88;;;14.85;;
35110;SDS011;21290;50.158;8.658;2024-03-06T01:25:18;23.73;;;15.18;;
35110;SDS011;21290;50.158;8.658;2024-03-06T01:27:45;19.92;;;14.82;;
35110;SDS011;21290;50.158;8.658;2024-03-06T01:30:11;24.38;;;15.23;;
35110;SDS011;21290;50.158;8.658;2024-03-06T01:32:38;20.45;;;14.68;;
35110;SDS011;21290;50.158;8.658;2024-03-06T01:35:05;21.30;;;14.75;;
35110;SDS011;21290;50.158;8.658;2024-03-06T01:37:33;17.88;;;13.60;;
35110;SDS011;21290;50.158;8.658;2024-03-06T01:39:59;22.85;;;14.95;;
35110;SDS011;21290;50.158;8.658;2024-03-06T01:42:26;18.80;;;14.40;;
35110;SDS011;21290;50.158;8.658;2024-03-06T01:44:54;22.25;;;13.90;;
35110;SDS011;21290;50.158;8.658;2024-03-06T01:47:21;17.85;;;13.93;;
35110;SDS011;21290;50.158;8.658;2024-03-06T01:49:47;21.33;;;14.45;;
35110;SDS011;21290;50.158;8.658;2024-03-06T01:52:15;24.88;;;15.20;;
35110;SDS011;21290;50.158;8.658;2024-03-06T01:54:44;19.80;;;15.02;;
35110;SDS011;21290;50.158;8.658;2024-03-06T01:57:14;20.00;;;13.60;;
35110;SDS011;21290;50.158;8.658;2024-03-06T01:59:43;19.90;;;14.15;;
35110;SDS011;21290;50.158;8.658;2024-03-06T02:02:10;25.00;;;16.73;;
35110;SDS011;21290;50.158;8.658;2024-03-06T02:04:39;22.75;;;15.07;;
35110;SDS011;21290;50.158;8.658;2024-03-06T02:07:09;21.70;;;16.35;;
35110;SDS011;21290;50.158;8.658;2024-03-06T02:09:39;24.27;;;17.38;;
35110;SDS011;21290;50.158;8.658;2024-03-06T02:12:06;25.58;;;16.80;;
35110;SDS011;21290;50.158;8.658;2024-03-06T02:14:36;25.20;;;16.92;;
35110;SDS011;21290;50.158;8.658;2024-03-06T02:19:43;26.85;;;16.35;;
35110;SDS011;21290;50.158;8.658;2024-03-06T02:22:10;28.85;;;16.10;;
35110;SDS011;21290;50.158;8.658;2024-03-06T02:24:39;28.02;;;16.65;;
35110;SDS011;21290;50.158;8.658;2024-03-06T02:27:11;26.23;;;16.55;;
35110;SDS011;21290;50.158;8.658;2024-03-06T02:29:37;29.75;;;17.42;;
35110;SDS011;21290;50.158;8.658;2024-03-06T02:32:04;26.77;;;17.38;;
35110;SDS011;21290;50.158;8.658;2024-03-06T02:34:31;25.77;;;17.77;;
35110;SDS011;21290;50.158;8.658;2024-03-06T02:36:58;25.27;;;17.40;;
35110;SDS011;21290;50.158;8.658;2024-03-06T02:39:25;28.38;;;18.45;;
35110;SDS011;21290;50.158;8.658;2024-03-06T02:41:52;27.67;;;18.30;;
35110;SDS011;21290;50.158;8.658;2024-03-06T02:44:19;27.88;;;18.92;;
35110;SDS011;21290;50.158;8.658;2024-03-06T02:46:47;29.33;;;18.20;;
35110;SDS011;21290;50.158;8.658;2024-03-06T02:49:17;27.70;;;17.75;;
35110;SDS011;21290;50.158;8.658;2024-03-06T02:51:45;28.08;;;18.48;;
35110;SDS011;21290;50.158;8.658;2024-03-06T02:54:12;28.70;;;17.33;;
35110;SDS011;21290;50.158;8.658;2024-03-06T02:56:38;28.23;;;17.17;;
35110;SDS011;21290;50.158;8.658;2024-03-06T02:59:05;25.35;;;16.70;;
35110;SDS011;21290;50.158;8.658;2024-03-06T03:01:33;26.20;;;16.77;;
35110;SDS011;21290;50.158;8.658;2024-03-06T03:04:00;23.63;;;15.60;;
35110;SDS011;21290;50.158;8.658;2024-03-06T03:06:27;23.90;;;16.13;;
35110;SDS011;21290;50.158;8.658;2024-03-06T03:08:55;24.40;;;17.02;;
35110;SDS011;21290;50.158;8.658;2024-03-06T03:11:22;24.00;;;16.75;;
35110;SDS011;21290;50.158;8.658;2024-03-06T03:13:49;23.15;;;16.73;;
35110;SDS011;21290;50.158;8.658;2024-03-06T03:16:17;26.02;;;16.73;;
35110;SDS011;21290;50.158;8.658;2024-03-06T03:18:44;25.50;;;17.58;;
35110;SDS011;21290;50.158;8.658;2024-03-06T03:21:11;23.15;;;16.55;;
35110;SDS011;21290;50.158;8.658;2024-03-06T03:23:40;23.33;;;15.90;;
35110;SDS011;21290;50.158;8.658;2024-03-06T03:26:07;25.27;;;16.30;;
35110;SDS011;21290;50.158;8.658;2024-03-06T03:28:37;21.90;;;15.07;;
35110;SDS011;21290;50.158;8.658;2024-03-06T03:31:09;23.55;;;15.63;;
35110;SDS011;21290;50.158;8.658;2024-03-06T03:33:39;18.80;;;14.43;;
35110;SDS011;21290;50.158;8.658;2024-03-06T03:36:07;22.08;;;14.20;;
35110;SDS011;21290;50.158;8.658;2024-03-06T03:38:37;18.52;;;13.52;;
35110;SDS011;21290;50.158;8.658;2024-03-06T03:41:11;19.60;;;11.60;;
35110;SDS011;21290;50.158;8.658;2024-03-06T03:43:39;17.48;;;11.73;;
35110;SDS011;21290;50.158;8.658;2024-03-06T03:46:06;15.68;;;11.13;;
35110;SDS011;21290;50.158;8.658;2024-03-06T03:48:33;15.45;;;11.10;;
35110;SDS011;21290;50.158;8.658;2024-03-06T03:51:02;15.90;;;10.77;;
35110;SDS011;21290;50.158;8.658;2024-03-06T03:53:31;13.13;;;9.43;;
35110;SDS011;21290;50.158;8.658;2024-03-06T03:55:58;14.30;;;10.25;;
35110;SDS011;21290;50.158;8.658;2024-03-06T03:58:26;18.35;;;9.93;;
35110;SDS011;21290;50.158;8.658;2024-03-06T04:00:53;15.90;;;9.80;;
35110;SDS011;21290;50.158;8.658;2024-03-06T04:03:22;13.30;;;9.38;;
35110;SDS011;21290;50.158;8.658;2024-03-06T04:05:50;14.10;;;9.80;;
35110;SDS011;21290;50.158;8.658;2024-03-06T04:08:18;18.73;;;9.73;;
35110;SDS011;21290;50.158;8.658;2024-03-06T04:10:45;14.50;;;9.75;;
35110;SDS011;21290;50.158;8.658;2024-03-06T04:13:12;13.88;;;9.75;;
35110;SDS011;21290;50.158;8.658;2024-03-06T04:15:39;14.55;;;10.38;;
35110;SDS011;21290;50.158;8.658;2024-03-06T04:18:06;15.30;;;10.40;;
35110;SDS011;21290;50.158;8.658;2024-03-06T04:20:33;13.35;;;9.48;;
35110;SDS011;21290;50.158;8.658;2024-03-06T04:23:00;13.80;;;9.98;;
35110;SDS011;21290;50.158;8.658;2024-03-06T04:25:27;16.75;;;10.55;;
35110;SDS011;21290;50.158;8.658;2024-03-06T04:27:53;18.70;;;11.13;;
35110;SDS011;21290;50.158;8.658;2024-03-06T04:30:20;16.67;;;10.43;;
35110;SDS011;21290;50.158;8.658;2024-03-06T04:32:47;14.05;;;9.85;;
35110;SDS011;21290;50.158;8.658;2024-03-06T04:35:15;16.90;;;10.35;;
35110;SDS011;21290;50.158;8.658;2024-03-06T04:37:42;16.75;;;11.73;;
35110;SDS011;21290;50.158;8.658;2024-03-06T04:40:10;14.25;;;10.80;;
35110;SDS011;21290;50.158;8.658;2024-03-06T04:42:37;16.05;;;11.10;;
35110;SDS011;21290;50.158;8.658;2024-03-06T04:45:04;14.80;;;10.80;;
35110;SDS011;21290;50.158;8.658;2024-03-06T04:47:37;16.55;;;11.20;;
35110;SDS011;21290;50.158;8.658;2024-03-06T04:50:07;15.18;;;11.45;;
35110;SDS011;21290;50.158;8.658;2024-03-06T04:52:39;14.60;;;10.68;;
35110;SDS011;21290;50.158;8.658;2024-03-06T04:55:07;15.32;;;11.15;;
35110;SDS011;21290;50.158;8.658;2024-03-06T04:57:39;16.85;;;10.27;;
35110;SDS011;21290;50.158;8.658;2024-03-06T05:00:09;14.63;;;10.23;;
35110;SDS011;21290;50.158;8.658;2024-03-06T05:02:37;15.13;;;10.68;;
35110;SDS011;21290;50.158;8.658;2024-03-06T05:05:21;14.02;;;10.27;;
35110;SDS011;21290;50.158;8.658;2024-03-06T05:08:08;13.18;;;10.20;;
35110;SDS011;21290;50.158;8.658;2024-03-06T05:10:54;15.88;;;11.68;;
35110;SDS011;21290;50.158;8.658;2024-03-06T05:13:38;17.33;;;12.10;;
35110;SDS011;21290;50.158;8.658;2024-03-06T05:16:23;17.95;;;11.80;;
35110;SDS011;21290;50.158;8.658;2024-03-06T05:19:07;18.88;;;12.32;;
35110;SDS011;21290;50.158;8.658;2024-03-06T05:21:54;17.08;;;12.65;;
35110;SDS011;21290;50.158;8.658;2024-03-06T05:24:37;18.25;;;12.95;;
35110;SDS011;21290;50.158;8.658;2024-03-06T05:27:22;16.45;;;12.38;;
35110;SDS011;21290;50.158;8.658;2024-03-06T05:30:06;19.90;;;13.35;;
35110;SDS011;21290;50.158;8.658;2024-03-06T05:32:52;20.27;;;13.70;;
35110;SDS011;21290;50.158;8.658;2024-03-06T05:35:36;19.95;;;13.32;;
35110;SDS011;21290;50.158;8.658;2024-03-06T05:38:20;22.33;;;14.43;;
35110;SDS011;21290;50.158;8.658;2024-03-06T05:41:06;22.25;;;15.07;;
35110;SDS011;21290;50.158;8.658;2024-03-06T05:43:52;21.67;;;14.68;;
35110;SDS011;21290;50.158;8.658;2024-03-06T05:46:36;21.42;;;14.20;;
35110;SDS011;21290;50.158;8.658;2024-03-06T05:49:20;23.40;;;14.57;;
35110;SDS011;21290;50.158;8.658;2024-03-06T05:52:04;22.17;;;14.10;;
35110;SDS011;21290;50.158;8.658;2024-03-06T05:54:48;25.95;;;15.60;;
35110;SDS011;21290;50.158;8.658;2024-03-06T05:57:32;23.40;;;15.05;;
35110;SDS011;21290;50.158;8.658;2024-03-06T06:00:16;23.85;;;14.75;;
35110;SDS011;21290;50.158;8.658;2024-03-06T06:02:44;22.13;;;15.00;;
35110;SDS011;21290;50.158;8.658;2024-03-06T06:05:12;26.55;;;16.65;;
35110;SDS011;21290;50.158;8.658;2024-03-06T06:07:49;22.05;;;15.40;;
35110;SDS011;21290;50.158;8.658;2024-03-06T06:10:17;25.40;;;16.40;;
35110;SDS011;21290;50.158;8.658;2024-03-06T06:12:47;24.40;;;16.52;;
35110;SDS011;21290;50.158;8.658;2024-03-06T06:15:15;26.65;;;17.48;;
35110;SDS011;21290;50.158;8.658;2024-03-06T06:17:42;29.88;;;17.40;;
35110;SDS011;21290;50.158;8.658;2024-03-06T06:20:11;26.85;;;17.55;;
35110;SDS011;21290;50.158;8.658;2024-03-06T06:22:42;23.58;;;14.57;;
35110;SDS011;21290;50.158;8.658;2024-03-06T06:25:10;19.40;;;12.70;;
35110;SDS011;21290;50.158;8.658;2024-03-06T06:27:37;18.55;;;11.95;;
35110;SDS011;21290;50.158;8.658;2024-03-06T06:30:04;17.13;;;12.65;;
35110;SDS011;21290;50.158;8.658;2024-03-06T06:32:33;16.33;;;11.98;;
35110;SDS011;21290;50.158;8.658;2024-03-06T06:35:01;16.45;;;11.52;;
35110;SDS011;21290;50.158;8.658;2024-03-06T06:37:28;15.20;;;11.55;;
35110;SDS011;21290;50.158;8.658;2024-03-06T06:39:55;16.38;;;11.05;;
35110;SDS011;21290;50.158;8.658;2024-03-06T06:42:22;19.60;;;11.70;;
35110;SDS011;21290;50.158;8.658;2024-03-06T06:44:49;18.90;;;12.35;;
35110;SDS011;21290;50.158;8.658;2024-03-06T06:47:16;16.15;;;11.48;;
35110;SDS011;21290;50.158;8.658;2024-03-06T06:49:43;18.17;;;10.93;;
35110;SDS011;21290;50.158;8.658;2024-03-06T06:52:11;16.48;;;11.48;;
35110;SDS011;21290;50.158;8.658;2024-03-06T06:54:37;16.40;;;11.23;;
35110;SDS011;21290;50.158;8.658;2024-03-06T06:57:04;20.08;;;11.30;;
35110;SDS011;21290;50.158;8.658;2024-03-06T06:59:31;19.00;;;11.43;;
35110;SDS011;21290;50.158;8.658;2024-03-06T07:01:58;14.30;;;10.38;;
35110;SDS011;21290;50.158;8.658;2024-03-06T07:04:25;13.60;;;9.02;;
35110;SDS011;21290;50.158;8.658;2024-03-06T07:06:52;13.75;;;9.10;;
35110;SDS011;21290;50.158;8.658;2024-03-06T07:09:19;12.35;;;8.98;;
35110;SDS011;21290;50.158;8.658;2024-03-06T07:11:46;15.85;;;9.50;;
35110;SDS011;21290;50.158;8.658;2024-03-06T07:14:14;18.63;;;10.05;;
35110;SDS011;21290;50.158;8.658;2024-03-06T07:16:41;14.40;;;10.10;;
35110;SDS011;21290;50.158;8.658;2024-03-06T07:19:09;14.10;;;9.15;;
35110;SDS011;21290;50.158;8.658;2024-03-06T07:21:36;14.52;;;9.77;;
35110;SDS011;21290;50.158;8.658;2024-03-06T07:24:04;13.80;;;9.70;;
35110;SDS011;21290;50.158;8.658;2024-03-06T07:26:34;14.80;;;10.55;;
35110;SDS011;21290;50.158;8.658;2024-03-06T07:29:02;15.57;;;10.13;;
35110;SDS011;21290;50.158;8.658;2024-03-06T07:31:29;14.40;;;10.70;;
35110;SDS011;21290;50.158;8.658;2024-03-06T07:33:56;15.05;;;10.57;;
35110;SDS011;21290;50.158;8.658;2024-03-06T07:36:22;19.38;;;13.30;;
35110;SDS011;21290;50.158;8.658;2024-03-06T07:38:49;20.00;;;12.35;;
35110;SDS011;21290;50.158;8.658;2024-03-06T07:41:16;24.67;;;12.45;;
35110;SDS011;21290;50.158;8.658;2024-03-06T07:43:43;15.23;;;10.95;;
35110;SDS011;21290;50.158;8.658;2024-03-06T07:46:10;21.45;;;12.65;;
35110;SDS011;21290;50.158;8.658;2024-03-06T07:48:38;23.05;;;16.83;;
35110;SDS011;21290;50.158;8.658;2024-03-06T07:51:08;23.05;;;15.88;;
35110;SDS011;21290;50.158;8.658;2024-03-06T07:53:34;27.35;;;19.33;;
35110;SDS011;21290;50.158;8.658;2024-03-06T07:56:02;27.65;;;20.00;;
35110;SDS011;21290;50.158;8.658;2024-03-06T07:58:29;19.92;;;15.45;;
35110;SDS011;21290;50.158;8.658;2024-03-06T08:00:57;22.13;;;16.10;;
35110;SDS011;21290;50.158;8.658;2024-03-06T08:03:25;20.43;;;14.80;;
35110;SDS011;21290;50.158;8.658;2024-03-06T08:05:52;19.83;;;14.18;;
35110;SDS011;21290;50.158;8.658;2024-03-06T08:08:20;20.50;;;14.93;;
35110;SDS011;21290;50.158;8.658;2024-03-06T08:10:47;20.48;;;15.18;;
35110;SDS011;21290;50.158;8.658;2024-03-06T08:13:15;20.08;;;13.52;;
35110;SDS011;21290;50.158;8.658;2024-03-06T08:15:42;19.70;;;14.43;;
35110;SDS011;21290;50.158;8.658;2024-03-06T08:18:11;19.35;;;15.13;;
35110;SDS011;21290;50.158;8.658;2024-03-06T08:20:40;23.80;;;15.75;;
35110;SDS011;21290;50.158;8.658;2024-03-06T08:23:08;20.17;;;15.55;;
35110;SDS011;21290;50.158;8.658;2024-03-06T08:25:36;21.50;;;15.85;;
35110;SDS011;21290;50.158;8.658;2024-03-06T08:28:04;21.35;;;15.57;;
35110;SDS011;21290;50.158;8.658;2024-03-06T08:30:32;23.73;;;15.15;;
35110;SDS011;21290;50.158;8.658;2024-03-06T08:32:59;20.30;;;14.55;;
35110;SDS011;21290;50.158;8.658;2024-03-06T08:35:28;22.13;;;16.15;;
35110;SDS011;21290;50.158;8.658;2024-03-06T08:37:56;21.23;;;15.57;;
35110;SDS011;21290;50.158;8.658;2024-03-06T08:40:23;23.70;;;16.23;;
35110;SDS011;21290;50.158;8.658;2024-03-06T08:42:52;23.67;;;16.35;;
35110;SDS011;21290;50.158;8.658;2024-03-06T08:45:18;21.08;;;15.30;;
35110;SDS011;21290;50.158;8.658;2024-03-06T08:47:45;21.63;;;15.75;;
35110;SDS011;21290;50.158;8.658;2024-03-06T08:50:13;22.58;;;15.43;;
35110;SDS011;21290;50.158;8.658;2024-03-06T08:52:41;21.02;;;16.00;;
35110;SDS011;21290;50.158;8.658;2024-03-06T08:55:08;25.20;;;17.30;;
35110;SDS011;21290;50.158;8.658;2024-03-06T08:57:36;23.33;;;15.77;;
35110;SDS011;21290;50.158;8.658;2024-03-06T09:00:03;21.77;;;16.15;;
35110;SDS011;21290;50.158;8.658;2024-03-06T09:02:38;27.40;;;16.10;;
35110;SDS011;21290;50.158;8.658;2024-03-06T09:05:08;24.02;;;15.95;;
35110;SDS011;21290;50.158;8.658;2024-03-06T09:07:39;25.88;;;16.20;;
35110;SDS011;21290;50.158;8.658;2024-03-06T09:10:10;23.08;;;15.43;;
35110;SDS011;21290;50.158;8.658;2024-03-06T09:12:37;23.10;;;16.58;;
35110;SDS011;21290;50.158;8.658;2024-03-06T09:15:04;23.30;;;16.08;;
35110;SDS011;21290;50.158;8.658;2024-03-06T09:20:00;24.65;;;17.13;;
35110;SDS011;21290;50.158;8.658;2024-03-06T09:22:37;25.48;;;17.90;;
35110;SDS011;21290;50.158;8.658;2024-03-06T09:25:05;30.23;;;19.55;;
35110;SDS011;21290;50.158;8.658;2024-03-06T09:27:32;27.17;;;18.45;;
35110;SDS011;21290;50.158;8.658;2024-03-06T09:29:59;28.98;;;18.55;;
35110;SDS011;21290;50.158;8.658;2024-03-06T09:32:26;31.45;;;20.65;;
35110;SDS011;21290;50.158;8.658;2024-03-06T09:34:53;26.05;;;19.08;;
35110;SDS011;21290;50.158;8.658;2024-03-06T09:37:20;31.75;;;21.38;;
35110;SDS011;21290;50.158;8.658;2024-03-06T09:39:47;30.13;;;21.40;;
35110;SDS011;21290;50.158;8.658;2024-03-06T09:42:14;31.98;;;21.55;;
35110;SDS011;21290;50.158;8.658;2024-03-06T09:44:41;32.45;;;21.75;;
35110;SDS011;21290;50.158;8.658;2024-03-06T09:47:08;29.13;;;21.35;;
35110;SDS011;21290;50.158;8.658;2024-03-06T09:49:42;31.85;;;21.52;;
35110;SDS011;21290;50.158;8.658;2024-03-06T09:52:09;31.88;;;22.95;;
35110;SDS011;21290;50.158;8.658;2024-03-06T09:54:37;32.92;;;21.70;;
35110;SDS011;21290;50.158;8.658;2024-03-06T09:57:05;31.35;;;21.45;;
35110;SDS011;21290;50.158;8.658;2024-03-06T09:59:32;33.20;;;21.77;;
35110;SDS011;21290;50.158;8.658;2024-03-06T10:02:00;27.95;;;20.65;;
35110;SDS011;21290;50.158;8.658;2024-03-06T10:04:32;30.02;;;21.23;;
35110;SDS011;21290;50.158;8.658;2024-03-06T10:07:00;26.95;;;19.30;;
35110;SDS011;21290;50.158;8.658;2024-03-06T10:09:29;27.13;;;20.27;;
35110;SDS011;21290;50.158;8.658;2024-03-06T10:11:57;30.80;;;19.80;;
35110;SDS011;21290;50.158;8.658;2024-03-06T10:14:28;25.38;;;19.60;;
35110;SDS011;21290;50.158;8.658;2024-03-06T10:16:57;26.05;;;18.55;;
35110;SDS011;21290;50.158;8.658;2024-03-06T10:19:25;23.48;;;17.42;;
35110;SDS011;21290;50.158;8.658;2024-03-06T10:21:57;22.52;;;17.13;;
35110;SDS011;21290;50.158;8.658;2024-03-06T10:24:25;20.70;;;16.02;;
35110;SDS011;21290;50.158;8.658;2024-03-06T10:26:57;22.15;;;16.75;;
35110;SDS011;21290;50.158;8.658;2024-03-06T10:29:26;21.50;;;15.82;;
35110;SDS011;21290;50.158;8.658;2024-03-06T10:31:56;20.15;;;15.75;;
35110;SDS011;21290;50.158;8.658;2024-03-06T10:36:55;21.67;;;15.68;;
35110;SDS011;21290;50.158;8.658;2024-03-06T10:39:23;21.65;;;16.55;;
35110;SDS011;21290;50.158;8.658;2024-03-06T10:41:52;21.15;;;15.85;;
35110;SDS011;21290;50.158;8.658;2024-03-06T10:44:22;20.27;;;15.60;;
35110;SDS011;21290;50.158;8.658;2024-03-06T10:47:01;18.17;;;14.98;;
35110;SDS011;21290;50.158;8.658;2024-03-06T10:49:29;19.95;;;15.52;;
35110;SDS011;21290;50.158;8.658;2024-03-06T10:51:57;22.60;;;15.25;;
35110;SDS011;21290;50.158;8.658;2024-03-06T10:54:29;19.58;;;15.82;;
35110;SDS011;21290;50.158;8.658;2024-03-06T10:57:01;18.55;;;14.77;;
35110;SDS011;21290;50.158;8.658;2024-03-06T10:59:28;19.17;;;15.23;;
35110;SDS011;21290;50.158;8.658;2024-03-06T11:02:00;16.67;;;14.63;;
35110;SDS011;21290;50.158;8.658;2024-03-06T11:04:30;17.08;;;14.50;;
35110;SDS011;21290;50.158;8.658;2024-03-06T11:07:01;17.80;;;14.82;;
35110;SDS011;21290;50.158;8.658;2024-03-06T11:09:35;17.08;;;14.80;;
35110;SDS011;21290;50.158;8.658;2024-03-06T11:12:04;17.45;;;14.60;;
35110;SDS011;21290;50.158;8.658;2024-03-06T11:14:38;18.17;;;15.55;;
35110;SDS011;21290;50.158;8.658;2024-03-06T11:17:08;16.63;;;14.80;;
35110;SDS011;21290;50.158;8.658;2024-03-06T11:28:16;17.27;;;15.40;;
35110;SDS011;21290;50.158;8.658;2024-03-06T11:30:44;19.17;;;16.05;;
35110;SDS011;21290;50.158;8.658;2024-03-06T11:33:14;17.70;;;15.30;;
35110;SDS011;21290;50.158;8.658;2024-03-06T11:38:53;16.90;;;15.00;;
35110;SDS011;21290;50.158;8.658;2024-03-06T11:41:28;18.48;;;14.35;;
35110;SDS011;21290;50.158;8.658;2024-03-06T11:44:16;15.95;;;13.90;;
35110;SDS011;21290;50.158;8.658;2024-03-06T11:46:48;15.93;;;14.23;;
35110;SDS011;21290;50.158;8.658;2024-03-06T11:49:19;17.63;;;13.95;;
35110;SDS011;21290;50.158;8.658;2024-03-06T11:51:47;16.17;;;14.48;;
35110;SDS011;21290;50.158;8.658;2024-03-06T11:54:17;16.33;;;13.85;;
35110;SDS011;21290;50.158;8.658;2024-03-06T11:56:50;15.93;;;13.98;;
35110;SDS011;21290;50.158;8.658;2024-03-06T11:59:30;18.98;;;13.50;;
35110;SDS011;21290;50.158;8.658;2024-03-06T12:01:59;16.25;;;13.38;;
35110;SDS011;21290;50.158;8.658;2024-03-06T12:04:29;16.67;;;14.07;;
35110;SDS011;21290;50.158;8.658;2024-03-06T12:06:57;17.95;;;14.20;;
35110;SDS011;21290;50.158;8.658;2024-03-06T12:09:34;18.23;;;13.30;;
35110;SDS011;21290;50.158;8.658;2024-03-06T12:12:08;18.80;;;14.23;;
35110;SDS011;21290;50.158;8.658;2024-03-06T12:14:36;16.88;;;13.30;;
35110;SDS011;21290;50.158;8.658;2024-03-06T12:17:06;15.07;;;12.20;;
35110;SDS011;21290;50.158;8.658;2024-03-06T12:19:37;14.02;;;12.07;;
35110;SDS011;21290;50.158;8.658;2024-03-06T12:22:04;16.30;;;12.77;;
35110;SDS011;21290;50.158;8.658;2024-03-06T12:24:31;17.58;;;13.52;;
35110;SDS011;21290;50.158;8.658;2024-03-06T12:27:06;16.20;;;13.35;;
35110;SDS011;21290;50.158;8.658;2024-03-06T12:29:34;17.75;;;14.30;;
35110;SDS011;21290;50.158;8.658;2024-03-06T12:32:02;19.83;;;15.48;;
35110;SDS011;21290;50.158;8.658;2024-03-06T12:34:29;21.48;;;16.38;;
35110;SDS011;21290;50.158;8.658;2024-03-06T12:37:10;20.75;;;15.70;;
35110;SDS011;21290;50.158;8.658;2024-03-06T12:39:37;23.30;;;15.85;;
35110;SDS011;21290;50.158;8.658;2024-03-06T12:42:09;22.10;;;16.27;;
35110;SDS011;21290;50.158;8.658;2024-03-06T12:44:35;23.63;;;16.35;;
35110;SDS011;21290;50.158;8.658;2024-03-06T12:47:02;24.40;;;16.27;;
35110;SDS011;21290;50.158;8.658;2024-03-06T12:49:30;22.25;;;16.48;;
35110;SDS011;21290;50.158;8.658;2024-03-06T12:51:56;23.20;;;16.13;;
35110;SDS011;21290;50.158;8.658;2024-03-06T12:54:28;23.52;;;16.98;;
35110;SDS011;21290;50.158;8.658;2024-03-06T12:56:55;21.55;;;16.30;;
35110;SDS011;21290;50.158;8.658;2024-03-06T12:59:23;31.15;;;16.90;;
35110;SDS011;21290;50.158;8.658;2024-03-06T13:01:50;20.85;;;15.77;;
35110;SDS011;21290;50.158;8.658;2024-03-06T13:04:17;20.85;;;16.45;;
35110;SDS011;21290;50.158;8.658;2024-03-06T13:06:44;22.42;;;16.05;;
35110;SDS011;21290;50.158;8.658;2024-03-06T13:09:12;23.27;;;16.27;;
35110;SDS011;21290;50.158;8.658;2024-03-06T13:11:39;20.25;;;15.60;;
35110;SDS011;21290;50.158;8.658;2024-03-06T13:14:08;22.73;;;16.58;;
35110;SDS011;21290;50.158;8.658;2024-03-06T13:16:39;25.83;;;16.33;;
35110;SDS011;21290;50.158;8.658;2024-03-06T13:19:07;22.00;;;16.42;;
35110;SDS011;21290;50.158;8.658;2024-03-06T13:24:02;21.27;;;15.43;;
35110;SDS011;21290;50.158;8.658;2024-03-06T13:26:29;24.58;;;17.33;;
35110;SDS011;21290;50.158;8.658;2024-03-06T13:28:56;25.08;;;17.60;;
35110;SDS011;21290;50.158;8.658;2024-03-06T13:31:23;30.42;;;16.70;;
35110;SDS011;21290;50.158;8.658;2024-03-06T13:33:50;25.23;;;16.20;;
35110;SDS011;21290;50.158;8.658;2024-03-06T13:36:16;19.77;;;14.55;;
35110;SDS011;21290;50.158;8.658;2024-03-06T13:38:43;21.67;;;15.90;;
35110;SDS011;21290;50.158;8.658;2024-03-06T13:41:11;20.10;;;14.68;;
35110;SDS011;21290;50.158;8.658;2024-03-06T13:43:38;20.73;;;14.57;;
35110;SDS011;21290;50.158;8.658;2024-03-06T13:46:05;19.42;;;15.10;;
35110;SDS011;21290;50.158;8.658;2024-03-06T13:48:32;19.15;;;14.68;;
35110;SDS011;21290;50.158;8.658;2024-03-06T13:50:59;21.02;;;15.52;;
35110;SDS011;21290;50.158;8.658;2024-03-06T13:53:26;22.15;;;14.90;;
35110;SDS011;21290;50.158;8.658;2024-03-06T13:55:53;21.00;;;15.05;;
35110;SDS011;21290;50.158;8.658;2024-03-06T13:58:20;22.52;;;15.93;;
35110;SDS011;21290;50.158;8.658;2024-03-06T14:00:47;19.58;;;15.05;;
35110;SDS011;21290;50.158;8.658;2024-03-06T14:03:14;20.63;;;15.27;;
35110;SDS011;21290;50.158;8.658;2024-03-06T14:05:41;20.27;;;14.90;;
35110;SDS011;21290;50.158;8.658;2024-03-06T14:08:08;18.67;;;13.95;;
35110;SDS011;21290;50.158;8.658;2024-03-06T14:10:41;18.63;;;14.05;;
35110;SDS011;21290;50.158;8.658;2024-03-06T14:13:08;17.70;;;13.52;;
35110;SDS011;21290;50.158;8.658;2024-03-06T14:15:35;20.38;;;13.27;;
35110;SDS011;21290;50.158;8.658;2024-03-06T14:18:04;22.40;;;14.05;;
35110;SDS011;21290;50.158;8.658;2024-03-06T14:20:32;18.17;;;12.67;;
35110;SDS011;21290;50.158;8.658;2024-03-06T14:22:59;20.27;;;13.23;;
35110;SDS011;21290;50.158;8.658;2024-03-06T14:25:27;18.90;;;13.38;;
35110;SDS011;21290;50.158;8.658;2024-03-06T14:27:54;17.30;;;12.88;;
35110;SDS011;21290;50.158;8.658;2024-03-06T14:30:21;19.75;;;13.55;;
35110;SDS011;21290;50.158;8.658;2024-03-06T14:32:48;17.05;;;12.93;;
35110;SDS011;21290;50.158;8.658;2024-03-06T14:35:15;23.10;;;12.82;;
35110;SDS011;21290;50.158;8.658;2024-03-06T14:37:42;16.33;;;12.20;;
35110;SDS011;21290;50.158;8.658;2024-03-06T14:40:09;16.50;;;12.45;;
35110;SDS011;21290;50.158;8.658;2024-03-06T14:42:36;16.90;;;12.55;;
35110;SDS011;21290;50.158;8.658;2024-03-06T14:45:04;17.98;;;12.68;;
35110;SDS011;21290;50.158;8.658;2024-03-06T14:47:32;20.30;;;13.27;;
35110;SDS011;21290;50.158;8.658;2024-03-06T14:49:59;17.98;;;12.25;;
35110;SDS011;21290;50.158;8.658;2024-03-06T14:52:26;17.77;;;13.48;;
35110;SDS011;21290;50.158;8.658;2024-03-06T14:54:53;17.20;;;13.23;;